CYQV

Yorkton Municipal Airport

Yorkton, Saskatchewan, Canada
METAR CYQV 240700Z AUTO 36006KT 9SM BKN060 BKN088 BKN120 17/15 A2983 RMK SLP101 DENSITY ALT 2300FT
Observed Flight Rules
May-24 @ 07:00 UTC (an hour ago) Visual Flight Rules
Wind Visibility Clouds
360° at 6 knots 9 miles
  • Broken at 6,000' AGL
  • Broken at 8,800' AGL
  • Broken at 12,000' AGL
Temperatures Readings
Current 17°C / 63°F
Dewpoint 15°C / 59°F
Humidity 88%
Altimeter 29.83" Hg
Pressure 1010.1 hPa
Elevation 498
METAR CYQV 240700Z AUTO 36006KT 9SM BKN060 BKN088 BKN120 17/15 A2983 RMK SLP101 DENSITY ALT 2300FT
Observed Flight Rules
May-24 @ 07:00 UTC
(an hour ago)
VFR
Wind Visibility
360° at 6 knots 9 miles
Clouds
  • Broken at 6,000' AGL
  • Broken at 8,800' AGL
  • Broken at 12,000' AGL
Temperature Dewpoint
17°C / 63°F 15°C / 59°F
Humidity Altimeter Pressure
88% 29.83" Hg 1010.1 hPa